Time;durP1;ratioP1;P1;durP2;ratioP2;P2;SDS_P1;SDS_P2;PMS_P1;PMS_P2;Temp;Humidity;BMP_temperature;BMP_pressure;BME280_temperature;BME280_humidity;BME280_pressure;Samples;Min_cycle;Max_cycle;Signal;HPM_P1;HPM_P2
2022/06/29 00:01:54;;;;;;;;;;;;;;;-146.27;100.00;64033.13;5113864;28;19911;-47
2022/06/29 00:04:19;;;;;;;;;;;;;;;-146.27;100.00;64033.13;5113731;28;19998;-47
2022/06/29 00:06:45;;;;;;;;;;;;;;;-146.27;100.00;64033.13;5113684;28;20005;-48
2022/06/29 00:09:10;;;;;;;;;;;;;;;-146.27;100.00;64033.13;5113945;28;19912;-49
2022/06/29 00:11:35;;;;;;;;;;;;;;;-146.27;100.00;64033.13;5112290;28;19911;-51
2022/06/29 00:14:01;;;;;;;;;;;;;;;-146.27;100.00;64033.13;5113414;28;19911;-47
2022/06/29 00:16:26;;;;;;;;;;;;;;;-146.27;100.00;64033.13;5113800;28;19912;-47
2022/06/29 00:18:51;;;;;;;;;;;;;;;-146.27;100.00;64033.13;5113220;28;20006;-50
2022/06/29 00:21:16;;;;;;;;;;;;;;;-146.27;100.00;64033.13;5113725;28;19958;-48
2022/06/29 00:23:42;;;;;;;;;;;;;;;-146.27;100.00;64033.13;5113549;28;19934;-47
2022/06/29 00:26:07;;;;;;;;;;;;;;;-146.27;100.00;64033.13;5113295;28;19912;-46
2022/06/29 00:28:32;;;;;;;;;;;;;;;-146.27;100.00;64033.13;5098796;28;19965;-47
2022/06/29 00:30:58;;;;;;;;;;;;;;;-146.27;100.00;64033.13;5093119;28;19912;-47
2022/06/29 00:33:23;;;;;;;;;;;;;;;-146.27;100.00;64033.13;5093125;28;20307;-46
2022/06/29 00:35:49;;;;;;;;;;;;;;;-146.27;100.00;64033.13;5092740;28;19932;-46
2022/06/29 00:38:14;;;;;;;;;;;;;;;-146.27;100.00;64033.13;5108021;28;20425;-47
2022/06/29 00:40:39;;;;;;;;;;;;;;;-146.27;100.00;64033.13;5113525;28;19912;-49
2022/06/29 00:43:05;;;;;;;;;;;;;;;-146.27;100.00;64033.13;5113266;28;20287;-47
2022/06/29 00:45:30;;;;;;;;;;;;;;;-146.27;100.00;64033.13;5112802;28;19920;-47
2022/06/29 00:47:55;;;;;;;;;;;;;;;-146.27;100.00;64033.13;5113213;28;20227;-49
2022/06/29 00:50:21;;;;;;;;;;;;;;;-146.27;100.00;64033.13;5112519;28;20018;-47
2022/06/29 00:52:46;;;;;;;;;;;;;;;-146.27;100.00;64033.13;5113024;28;19916;-46
2022/06/29 00:55:17;;;;;;;;;;;;;;;-146.27;100.00;64033.13;5112370;28;19961;-47
2022/06/29 00:57:44;;;;;;;;;;;;;;;-146.27;100.00;64033.13;5113058;28;20367;-47
2022/06/29 01:00:09;;;;;;;;;;;;;;;-146.27;100.00;64033.13;5112686;28;20371;-49
2022/06/29 01:02:35;;;;;;;;;;;;;;;-146.27;100.00;64033.13;5112868;28;19973;-48
2022/06/29 01:05:01;;;;;;;;;;;;;;;-146.27;100.00;64033.13;5112921;28;19912;-47
2022/06/29 01:07:28;;;;;;;;;;;;;;;-146.27;100.00;64033.13;5112773;28;20042;-46
2022/06/29 01:09:54;;;;;;;;;;;;;;;-146.27;100.00;64033.13;5112430;28;19962;-48
2022/06/29 01:12:19;;;;;;;;;;;;;;;-146.27;100.00;64033.13;5112503;28;19958;-48
2022/06/29 01:14:47;;;;;;;;;;;;;;;-146.27;100.00;64033.13;5112661;28;20314;-48
2022/06/29 01:17:12;;;;;;;;;;;;;;;-146.27;100.00;64033.13;5112458;28;20252;-48
2022/06/29 01:19:38;;;;;;;;;;;;;;;-146.27;100.00;64033.13;5112292;28;19923;-46
2022/06/29 01:22:07;;;;;;;;;;;;;;;-146.27;100.00;64033.13;5112298;28;19919;-46
2022/06/29 01:24:33;;;;;;;;;;;;;;;-146.27;100.00;64033.13;5112268;28;19955;-46
2022/06/29 01:26:58;;;;;;;;;;;;;;;-146.27;100.00;64033.13;5111314;28;19958;-47
2022/06/29 01:29:23;;;;;;;;;;;;;;;-146.27;100.00;64033.13;5091901;28;19916;-48
2022/06/29 01:31:53;;;;;;;;;;;;;;;-146.27;100.00;64033.13;5091439;28;19959;-48
2022/06/29 01:34:18;;;;;;;;;;;;;;;-146.27;100.00;64033.13;5091949;28;20000;-47
2022/06/29 01:36:44;;;;;;;;;;;;;;;-146.27;100.00;64033.13;5094615;28;20454;-47
2022/06/29 01:39:09;;;;;;;;;;;;;;;-146.27;100.00;64033.13;5112129;28;19915;-47
2022/06/29 01:41:34;;;;;;;;;;;;;;;-146.27;100.00;64033.13;5112030;28;20395;-46
2022/06/29 01:44:00;;;;;;;;;;;;;;;-146.27;100.00;64033.13;5109879;28;19911;-47
2022/06/29 01:46:25;;;;;;;;;;;;;;;-146.27;100.00;64033.13;5111937;28;19912;-48
2022/06/29 01:48:50;;;;;;;;;;;;;;;-146.27;100.00;64033.13;5111575;28;19949;-50
2022/06/29 01:51:15;;;;;;;;;;;;;;;-146.27;100.00;64033.13;5111708;28;20255;-48
2022/06/29 01:53:41;;;;;;;;;;;;;;;-146.27;100.00;64033.13;5111561;28;19972;-47
2022/06/29 01:56:06;;;;;;;;;;;;;;;-146.27;100.00;64033.13;5111724;28;19951;-47
2022/06/29 01:58:32;;;;;;;;;;;;;;;-146.27;100.00;64033.13;5111618;28;20328;-49
2022/06/29 02:00:57;;;;;;;;;;;;;;;-146.27;100.00;64033.13;5111188;28;20387;-49
2022/06/29 02:03:22;;;;;;;;;;;;;;;-146.27;100.00;64033.13;5111430;27;19976;-50
2022/06/29 02:05:48;;;;;;;;;;;;;;;-146.27;100.00;64033.13;5110357;28;19911;-47
2022/06/29 02:08:13;;;;;;;;;;;;;;;-146.27;100.00;64033.13;5110322;28;19941;-47
2022/06/29 02:10:38;;;;;;;;;;;;;;;-146.27;100.00;64033.13;5111408;28;19923;-47
2022/06/29 02:13:04;;;;;;;;;;;;;;;-146.27;100.00;64033.13;5111233;28;19968;-49
2022/06/29 02:15:29;;;;;;;;;;;;;;;-146.27;100.00;64033.13;5110914;28;20357;-47
2022/06/29 02:17:54;;;;;;;;;;;;;;;-146.27;100.00;64033.13;5111655;28;20052;-47
2022/06/29 02:20:20;;;;;;;;;;;;;;;-146.27;100.00;64033.13;5110844;28;19968;-47
2022/06/29 02:22:45;;;;;;;;;;;;;;;-146.27;100.00;64033.13;5110913;28;20021;-47
2022/06/29 02:25:10;;;;;;;;;;;;;;;-146.27;100.00;64033.13;5110799;28;20365;-49
2022/06/29 02:27:40;;;;;;;;;;;;;;;-146.27;100.00;64033.13;5104892;28;19919;-48
2022/06/29 02:30:06;;;;;;;;;;;;;;;-146.27;100.00;64033.13;5091109;28;19912;-49
2022/06/29 02:35:15;;;;;;;;;;;;;;;-146.27;100.00;64033.13;5091224;28;20453;-47
2022/06/29 02:37:40;;;;;;;;;;;;;;;-146.27;100.00;64033.13;5101593;28;19923;-47
2022/06/29 02:40:06;;;;;;;;;;;;;;;-146.27;100.00;64033.13;5111480;28;19951;-48
2022/06/29 02:42:31;;;;;;;;;;;;;;;-146.27;100.00;64033.13;5111774;28;20390;-50
2022/06/29 02:44:57;;;;;;;;;;;;;;;-146.27;100.00;64033.13;5110943;28;19916;-50
2022/06/29 02:47:22;;;;;;;;;;;;;;;-146.27;100.00;64033.13;5110959;28;19916;-47
2022/06/29 02:49:47;;;;;;;;;;;;;;;-146.27;100.00;64033.13;5110864;28;19912;-48
2022/06/29 02:52:12;;;;;;;;;;;;;;;-146.27;100.00;64033.13;5111142;28;19916;-48
2022/06/29 02:54:38;;;;;;;;;;;;;;;-146.27;100.00;64033.13;5110707;28;19911;-49
2022/06/29 02:57:03;;;;;;;;;;;;;;;-146.27;100.00;64033.13;5111030;28;19999;-50
2022/06/29 02:59:29;;;;;;;;;;;;;;;-146.27;100.00;64033.13;5111363;28;20065;-47
2022/06/29 03:01:54;;;;;;;;;;;;;;;-146.27;100.00;64033.13;5111399;28;20276;-47
2022/06/29 03:04:20;;;;;;;;;;;;;;;-146.27;100.00;64033.13;5110920;28;20318;-49
2022/06/29 03:06:45;;;;;;;;;;;;;;;-146.27;100.00;64033.13;5111016;28;19919;-47
2022/06/29 03:09:10;;;;;;;;;;;;;;;-146.27;100.00;64033.13;5110516;28;19912;-46
2022/06/29 03:11:35;;;;;;;;;;;;;;;-146.27;100.00;64033.13;5110869;28;19919;-46
2022/06/29 03:14:01;;;;;;;;;;;;;;;-146.27;100.00;64033.13;5110530;28;19919;-47
2022/06/29 03:16:26;;;;;;;;;;;;;;;-146.27;100.00;64033.13;5111243;28;20351;-50
2022/06/29 03:18:51;;;;;;;;;;;;;;;-146.27;100.00;64033.13;5114159;28;19912;-49
2022/06/29 03:21:17;;;;;;;;;;;;;;;-146.27;100.00;64033.13;5114865;28;19918;-49
2022/06/29 03:23:43;;;;;;;;;;;;;;;-146.27;100.00;64033.13;5114622;28;19912;-48
2022/06/29 03:26:09;;;;;;;;;;;;;;;-146.27;100.00;64033.13;5114066;28;19912;-48
2022/06/29 03:28:34;;;;;;;;;;;;;;;-146.27;100.00;64033.13;5099429;28;20071;-49
2022/06/29 03:31:00;;;;;;;;;;;;;;;-146.27;100.00;64033.13;5093643;28;19911;-47
2022/06/29 03:33:25;;;;;;;;;;;;;;;-146.27;100.00;64033.13;5093806;28;19973;-47
2022/06/29 03:35:50;;;;;;;;;;;;;;;-146.27;100.00;64033.13;5093494;28;19986;-47
2022/06/29 03:38:15;;;;;;;;;;;;;;;-146.27;100.00;64033.13;5109680;28;19916;-47
2022/06/29 03:40:41;;;;;;;;;;;;;;;-146.27;100.00;64033.13;5113838;28;19911;-45
2022/06/29 03:43:06;;;;;;;;;;;;;;;-146.27;100.00;64033.13;5113995;28;19919;-48
2022/06/29 03:45:32;;;;;;;;;;;;;;;-146.27;100.00;64033.13;5113846;28;20306;-46
2022/06/29 03:47:57;;;;;;;;;;;;;;;-146.27;100.00;64033.13;5114469;28;19919;-47
2022/06/29 03:50:22;;;;;;;;;;;;;;;-146.27;100.00;64033.13;5113783;28;20329;-48
2022/06/29 03:52:49;;;;;;;;;;;;;;;-146.27;100.00;64033.13;5113983;28;19916;-47
2022/06/29 03:55:14;;;;;;;;;;;;;;;-146.27;100.00;64033.13;5113453;28;19911;-47
2022/06/29 03:57:39;;;;;;;;;;;;;;;-146.27;100.00;64033.13;5112692;28;19916;-47
2022/06/29 04:00:05;;;;;;;;;;;;;;;-146.27;100.00;64033.13;5113707;28;19911;-46
2022/06/29 04:02:30;;;;;;;;;;;;;;;-146.27;100.00;64033.13;5113491;28;20308;-47
2022/06/29 04:04:56;;;;;;;;;;;;;;;-146.27;100.00;64033.13;5114256;28;20344;-46
2022/06/29 04:07:21;;;;;;;;;;;;;;;-146.27;100.00;64033.13;5112919;28;20336;-46
2022/06/29 04:09:46;;;;;;;;;;;;;;;-146.27;100.00;64033.13;5112122;28;20097;-50
2022/06/29 04:12:12;;;;;;;;;;;;;;;-146.27;100.00;64033.13;5110885;28;19959;-47
2022/06/29 04:14:37;;;;;;;;;;;;;;;-146.27;100.00;64033.13;5111714;28;19954;-46
2022/06/29 04:17:03;;;;;;;;;;;;;;;-146.27;100.00;64033.13;5107921;28;19995;-47
2022/06/29 04:19:28;;;;;;;;;;;;;;;-146.27;100.00;64033.13;5091447;28;19912;-46
2022/06/29 04:21:54;;;;;;;;;;;;;;;-146.27;100.00;64033.13;5091572;28;19919;-46
2022/06/29 04:24:20;;;;;;;;;;;;;;;-146.27;100.00;64033.13;5090394;28;20355;-47
2022/06/29 04:26:45;;;;;;;;;;;;;;;-146.27;100.00;64033.13;5090243;28;19918;-47
2022/06/29 04:29:11;;;;;;;;;;;;;;;-146.27;100.00;64033.13;5090036;28;19913;-49
2022/06/29 04:31:36;;;;;;;;;;;;;;;-146.27;100.00;64033.13;5090927;28;20351;-47
2022/06/29 04:34:01;;;;;;;;;;;;;;;-146.27;100.00;64033.13;5090001;28;20299;-47
2022/06/29 04:36:27;;;;;;;;;;;;;;;-146.27;100.00;64033.13;5090225;28;20056;-48
2022/06/29 04:38:54;;;;;;;;;;;;;;;-146.27;100.00;64033.13;5091449;28;20010;-47
2022/06/29 04:41:19;;;;;;;;;;;;;;;-146.27;100.00;64033.13;5092031;28;19912;-47
2022/06/29 04:43:45;;;;;;;;;;;;;;;-146.27;100.00;64033.13;5091520;28;19935;-46
2022/06/29 04:46:19;;;;;;;;;;;;;;;-146.27;100.00;64033.13;5091802;28;19938;-47
2022/06/29 04:48:44;;;;;;;;;;;;;;;-146.27;100.00;64033.13;5092019;28;19912;-50
2022/06/29 04:51:10;;;;;;;;;;;;;;;-146.27;100.00;64033.13;5091943;28;19916;-48
2022/06/29 04:53:35;;;;;;;;;;;;;;;-146.27;100.00;64033.13;5092207;28;20014;-48
2022/06/29 04:56:01;;;;;;;;;;;;;;;-146.27;100.00;64033.13;5091460;28;19984;-47
2022/06/29 04:58:26;;;;;;;;;;;;;;;-146.27;100.00;64033.13;5091995;28;20353;-48
2022/06/29 05:00:51;;;;;;;;;;;;;;;-146.27;100.00;64033.13;5091688;28;19961;-48
2022/06/29 05:03:17;;;;;;;;;;;;;;;-146.27;100.00;64033.13;5091422;28;19969;-50
2022/06/29 05:05:42;;;;;;;;;;;;;;;-146.27;100.00;64033.13;5091131;28;19919;-48
2022/06/29 05:08:07;;;;;;;;;;;;;;;-146.27;100.00;64033.13;5091970;28;19951;-51
2022/06/29 05:10:33;;;;;;;;;;;;;;;-146.27;100.00;64033.13;5091783;28;19969;-47
2022/06/29 05:12:58;;;;;;;;;;;;;;;-146.27;100.00;64033.13;5091754;28;20371;-48
2022/06/29 05:15:24;;;;;;;;;;;;;;;-146.27;100.00;64033.13;5091175;28;19958;-49
2022/06/29 05:17:49;;;;;;;;;;;;;;;-146.27;100.00;64033.13;5091420;28;19915;-47
2022/06/29 05:20:14;;;;;;;;;;;;;;;-146.27;100.00;64033.13;5091119;28;19919;-48
2022/06/29 05:22:40;;;;;;;;;;;;;;;-146.27;100.00;64033.13;5091161;28;19947;-51
2022/06/29 05:25:06;;;;;;;;;;;;;;;-146.27;100.00;64033.13;5090986;28;20003;-50
2022/06/29 05:27:31;;;;;;;;;;;;;;;-146.27;100.00;64033.13;5090831;28;19968;-49
2022/06/29 05:29:56;;;;;;;;;;;;;;;-146.27;100.00;64033.13;5091081;28;20300;-48
2022/06/29 05:32:22;;;;;;;;;;;;;;;-146.27;100.00;64033.13;5090934;28;19974;-49
2022/06/29 05:34:47;;;;;;;;;;;;;;;-146.27;100.00;64033.13;5090719;28;19916;-48
2022/06/29 05:37:12;;;;;;;;;;;;;;;-146.27;100.00;64033.13;5097289;28;19920;-47
2022/06/29 05:39:37;;;;;;;;;;;;;;;-146.27;100.00;64033.13;5111190;28;20341;-46
2022/06/29 05:42:03;;;;;;;;;;;;;;;-146.27;100.00;64033.13;5111149;28;19912;-50
2022/06/29 05:44:28;;;;;;;;;;;;;;;-146.27;100.00;64033.13;5111311;28;19918;-47
2022/06/29 05:46:54;;;;;;;;;;;;;;;-146.27;100.00;64033.13;5111406;28;19918;-47
2022/06/29 05:49:19;;;;;;;;;;;;;;;-146.27;100.00;64033.13;5110868;28;19980;-48
2022/06/29 05:51:44;;;;;;;;;;;;;;;-146.27;100.00;64033.13;5111161;28;19943;-48
2022/06/29 05:54:09;;;;;;;;;;;;;;;-146.27;100.00;64033.13;5111078;28;19916;-49
2022/06/29 05:56:35;;;;;;;;;;;;;;;-146.27;100.00;64033.13;5110929;28;20371;-47
2022/06/29 05:59:00;;;;;;;;;;;;;;;-146.27;100.00;64033.13;5111078;28;19912;-50
2022/06/29 06:01:25;;;;;;;;;;;;;;;-146.27;100.00;64033.13;5111204;28;19999;-51
2022/06/29 06:03:50;;;;;;;;;;;;;;;-146.27;100.00;64033.13;5111225;28;19959;-50
2022/06/29 06:06:16;;;;;;;;;;;;;;;-146.27;100.00;64033.13;5111288;28;20390;-50
2022/06/29 06:08:41;;;;;;;;;;;;;;;-146.27;100.00;64033.13;5110921;28;19984;-50
2022/06/29 06:11:06;;;;;;;;;;;;;;;-146.27;100.00;64033.13;5110604;28;19916;-48
2022/06/29 06:13:32;;;;;;;;;;;;;;;-146.27;100.00;64033.13;5110960;28;19972;-47
2022/06/29 06:15:57;;;;;;;;;;;;;;;-146.27;100.00;64033.13;5111103;28;20374;-48
2022/06/29 06:18:22;;;;;;;;;;;;;;;-146.27;100.00;64033.13;5111430;28;19981;-49
2022/06/29 06:20:47;;;;;;;;;;;;;;;-146.27;100.00;64033.13;5111287;28;19912;-49
2022/06/29 06:23:13;;;;;;;;;;;;;;;-146.27;100.00;64033.13;5110482;28;19956;-51
2022/06/29 06:25:38;;;;;;;;;;;;;;;-146.27;100.00;64033.13;5110509;28;20006;-49
2022/06/29 06:28:05;;;;;;;;;;;;;;;-146.27;100.00;64033.13;5111101;28;19912;-48
2022/06/29 06:30:31;;;;;;;;;;;;;;;-146.27;100.00;64033.13;5110825;28;19916;-48
2022/06/29 06:32:56;;;;;;;;;;;;;;;-146.27;100.00;64033.13;5110943;28;19924;-48
2022/06/29 06:35:22;;;;;;;;;;;;;;;-146.27;100.00;64033.13;5109389;28;19922;-47
2022/06/29 06:37:47;;;;;;;;;;;;;;;-146.27;100.00;64033.13;5110540;28;19924;-48
2022/06/29 06:42:57;;;;;;;;;;;;;;;-146.27;100.00;64033.13;5110747;28;20236;-50
2022/06/29 06:45:23;;;;;;;;;;;;;;;-146.27;100.00;64033.13;5110077;28;20379;-47
2022/06/29 06:47:52;;;;;;;;;;;;;;;-146.27;100.00;64033.13;5109816;28;20474;-48
2022/06/29 06:50:17;;;;;;;;;;;;;;;-146.27;100.00;64033.13;5110415;28;20276;-47
2022/06/29 06:52:42;;;;;;;;;;;;;;;-146.27;100.00;64033.13;5112538;28;19973;-51
2022/06/29 06:55:08;;;;;;;;;;;;;;;-146.27;100.00;64033.13;5114118;28;19912;-45
2022/06/29 06:57:33;;;;;;;;;;;;;;;-146.27;100.00;64033.13;5114282;28;19911;-49
2022/06/29 06:59:59;;;;;;;;;;;;;;;-146.27;100.00;64033.13;5114683;28;19911;-49
2022/06/29 07:02:24;;;;;;;;;;;;;;;-146.27;100.00;64033.13;5114035;28;19947;-51
2022/06/29 07:04:49;;;;;;;;;;;;;;;-146.27;100.00;64033.13;5114198;28;19920;-48
2022/06/29 07:07:15;;;;;;;;;;;;;;;-146.27;100.00;64033.13;5114501;28;19916;-51
2022/06/29 07:09:40;;;;;;;;;;;;;;;-146.27;100.00;64033.13;5112675;28;19935;-48
2022/06/29 07:12:06;;;;;;;;;;;;;;;-146.27;100.00;64033.13;5099391;28;19912;-52
2022/06/29 07:14:31;;;;;;;;;;;;;;;-146.27;100.00;64033.13;5108918;28;19923;-50
2022/06/29 07:16:57;;;;;;;;;;;;;;;-146.27;100.00;64033.13;5097478;28;20076;-49
2022/06/29 07:19:22;;;;;;;;;;;;;;;-146.27;100.00;64033.13;5108284;28;19913;-48
2022/06/29 07:21:47;;;;;;;;;;;;;;;-146.27;100.00;64033.13;5101849;28;19912;-48
2022/06/29 07:24:12;;;;;;;;;;;;;;;-146.27;100.00;64033.13;5098987;28;19921;-50
2022/06/29 07:26:38;;;;;;;;;;;;;;;-146.27;100.00;64033.13;5110053;28;20236;-49
2022/06/29 07:29:03;;;;;;;;;;;;;;;-146.27;100.00;64033.13;5097594;28;19922;-47
2022/06/29 07:31:29;;;;;;;;;;;;;;;-146.27;100.00;64033.13;5105530;28;19912;-51
2022/06/29 07:33:54;;;;;;;;;;;;;;;-146.27;100.00;64033.13;5103788;28;20352;-49
2022/06/29 07:36:19;;;;;;;;;;;;;;;-146.27;100.00;64033.13;5104563;28;19950;-49
2022/06/29 07:38:44;;;;;;;;;;;;;;;-146.27;100.00;64033.13;5110648;28;19930;-38
2022/06/29 07:41:10;;;;;;;;;;;;;;;-146.27;100.00;64033.13;5114529;28;19951;-38
2022/06/29 07:43:35;;;;;;;;;;;;;;;-146.27;100.00;64033.13;5114031;28;20363;-37
2022/06/29 07:46:00;;;;;;;;;;;;;;;-146.27;100.00;64033.13;5113105;28;19911;-51
2022/06/29 07:48:26;;;;;;;;;;;;;;;-146.27;100.00;64033.13;5113387;28;19919;-47
2022/06/29 07:50:51;;;;;;;;;;;;;;;-146.27;100.00;64033.13;5113261;28;19918;-48
2022/06/29 07:53:17;;;;;;;;;;;;;;;-146.27;100.00;64033.13;5113313;28;19923;-48
2022/06/29 07:55:44;;;;;;;;;;;;;;;-146.27;100.00;64033.13;5113296;28;19912;-48
2022/06/29 07:58:19;;;;;;;;;;;;;;;-146.27;100.00;64033.13;5113562;28;19930;-48
2022/06/29 08:00:45;;;;;;;;;;;;;;;-146.27;100.00;64033.13;5113408;28;19911;-51
2022/06/29 08:03:10;;;;;;;;;;;;;;;-146.27;100.00;64033.13;5112228;28;20010;-48
2022/06/29 08:05:35;;;;;;;;;;;;;;;-146.27;100.00;64033.13;5112827;28;20032;-50
2022/06/29 08:08:01;;;;;;;;;;;;;;;-146.27;100.00;64033.13;5112270;28;19912;-49
2022/06/29 08:10:26;;;;;;;;;;;;;;;-146.27;100.00;64033.13;5111938;28;19995;-48
2022/06/29 08:12:52;;;;;;;;;;;;;;;-146.27;100.00;64033.13;5111653;28;19988;-51
2022/06/29 08:15:17;;;;;;;;;;;;;;;-146.27;100.00;64033.13;5111349;28;19911;-48
2022/06/29 08:17:48;;;;;;;;;;;;;;;-146.27;100.00;64033.13;5111040;28;19919;-48
2022/06/29 08:20:13;;;;;;;;;;;;;;;-146.27;100.00;64033.13;5111072;28;20405;-50
2022/06/29 08:22:39;;;;;;;;;;;;;;;-146.27;100.00;64033.13;5111745;28;19919;-49
2022/06/29 08:25:04;;;;;;;;;;;;;;;-146.27;100.00;64033.13;5112211;28;19931;-47
2022/06/29 08:27:31;;;;;;;;;;;;;;;-146.27;100.00;64033.13;5112832;28;20316;-48
2022/06/29 08:29:57;;;;;;;;;;;;;;;-146.27;100.00;64033.13;5112895;28;19911;-50
2022/06/29 08:32:22;;;;;;;;;;;;;;;-146.27;100.00;64033.13;5112307;28;19942;-47
2022/06/29 08:34:47;;;;;;;;;;;;;;;-146.27;100.00;64033.13;5112232;28;20372;-49
2022/06/29 08:37:12;;;;;;;;;;;;;;;-146.27;100.00;64033.13;5112591;28;19920;-51
2022/06/29 08:39:38;;;;;;;;;;;;;;;-146.27;100.00;64033.13;5112405;28;19912;-50
2022/06/29 08:42:04;;;;;;;;;;;;;;;-146.27;100.00;64033.13;5112691;28;19918;-51
2022/06/29 08:44:33;;;;;;;;;;;;;;;-146.27;100.00;64033.13;5112549;28;20006;-51
2022/06/29 08:47:02;;;;;;;;;;;;;;;-146.27;100.00;64033.13;5112728;28;19912;-49
2022/06/29 08:49:28;;;;;;;;;;;;;;;-146.27;100.00;64033.13;5111961;28;20014;-51
2022/06/29 08:51:55;;;;;;;;;;;;;;;-146.27;100.00;64033.13;5112516;28;19907;-51
2022/06/29 08:54:21;;;;;;;;;;;;;;;-146.27;100.00;64033.13;5112675;28;19999;-48
2022/06/29 08:56:46;;;;;;;;;;;;;;;-146.27;100.00;64033.13;5112228;28;20381;-48
2022/06/29 08:59:12;;;;;;;;;;;;;;;-146.27;100.00;64033.13;5112327;28;19912;-47
2022/06/29 09:01:37;;;;;;;;;;;;;;;-146.27;100.00;64033.13;5112348;28;19943;-51
2022/06/29 09:04:02;;;;;;;;;;;;;;;-146.27;100.00;64033.13;5111956;28;19911;-50
2022/06/29 09:06:28;;;;;;;;;;;;;;;-146.27;100.00;64033.13;5112185;28;19919;-51
2022/06/29 09:08:56;;;;;;;;;;;;;;;-146.27;100.00;64033.13;5112403;28;19912;-47
2022/06/29 09:11:25;;;;;;;;;;;;;;;-146.27;100.00;64033.13;5110602;28;20292;-48
2022/06/29 09:14:07;;;;;;;;;;;;;;;-146.27;100.00;64033.13;5111483;28;19920;-50
2022/06/29 09:16:47;;;;;;;;;;;;;;;-146.27;100.00;64033.13;5111553;28;20423;-50
2022/06/29 09:19:12;;;;;;;;;;;;;;;-146.27;100.00;64033.13;5111627;28;20356;-50
2022/06/29 09:21:44;;;;;;;;;;;;;;;-146.27;100.00;64033.13;5111780;28;19912;-50
2022/06/29 09:24:15;;;;;;;;;;;;;;;-146.27;100.00;64033.13;5112021;28;20036;-51
2022/06/29 09:26:41;;;;;;;;;;;;;;;-146.27;100.00;64033.13;5111631;28;19915;-50
2022/06/29 09:29:20;;;;;;;;;;;;;;;-146.27;100.00;64033.13;5111788;28;19919;-49
2022/06/29 09:32:08;;;;;;;;;;;;;;;-146.27;100.00;64033.13;5111459;28;19915;-51
2022/06/29 09:34:38;;;;;;;;;;;;;;;-146.27;100.00;64033.13;5111559;28;19920;-48
2022/06/29 09:37:04;;;;;;;;;;;;;;;-146.27;100.00;64033.13;5111366;28;20379;-46
2022/06/29 09:39:36;;;;;;;;;;;;;;;-146.27;100.00;64033.13;5111657;28;19916;-48
2022/06/29 09:42:03;;;;;;;;;;;;;;;-146.27;100.00;64033.13;5111863;28;19954;-50
2022/06/29 09:44:28;;;;;;;;;;;;;;;-146.27;100.00;64033.13;5110844;28;19911;-48
2022/06/29 09:46:54;;;;;;;;;;;;;;;-146.27;100.00;64033.13;5111575;28;20070;-50
2022/06/29 09:49:25;;;;;;;;;;;;;;;-146.27;100.00;64033.13;5111603;28;19912;-49
2022/06/29 09:51:51;;;;;;;;;;;;;;;-146.27;100.00;64033.13;5111527;28;19912;-47
2022/06/29 09:54:17;;;;;;;;;;;;;;;-146.27;100.00;64033.13;5110778;28;20386;-48
2022/06/29 09:56:49;;;;;;;;;;;;;;;-146.27;100.00;64033.13;5111262;28;19937;-50
2022/06/29 10:02:34;;;;;;;;;;;;;;;-146.27;100.00;64033.13;5111033;28;19912;-48
2022/06/29 10:04:57;;;;;;;;;;;;;;;-146.27;100.00;64033.13;5109918;28;19958;-49
2022/06/29 10:07:22;;;;;;;;;;;;;;;-146.27;100.00;64033.13;5111044;28;20042;-48
2022/06/29 10:09:48;;;;;;;;;;;;;;;-146.27;100.00;64033.13;5110965;28;20358;-49
2022/06/29 10:15:02;;;;;;;;;;;;;;;-146.27;100.00;64033.13;5111000;28;20391;-48
2022/06/29 10:17:44;;;;;;;;;;;;;;;-146.27;100.00;64033.13;5110980;28;19911;-52
2022/06/29 10:20:38;;;;;;;;;;;;;;;-146.27;100.00;64033.13;5110878;28;20375;-50
2022/06/29 10:23:04;;;;;;;;;;;;;;;-146.27;100.00;64033.13;5105702;28;19928;-51
2022/06/29 10:25:29;;;;;;;;;;;;;;;-146.27;100.00;64033.13;5110152;28;19911;-48
2022/06/29 10:28:07;;;;;;;;;;;;;;;-146.27;100.00;64033.13;5113823;28;19912;-49
2022/06/29 10:30:34;;;;;;;;;;;;;;;-146.27;100.00;64033.13;5115061;28;19919;-48
2022/06/29 10:33:17;;;;;;;;;;;;;;;-146.27;100.00;64033.13;5115251;28;20052;-48
2022/06/29 10:36:05;;;;;;;;;;;;;;;-146.27;100.00;64033.13;5114329;28;19920;-51
2022/06/29 10:38:31;;;;;;;;;;;;;;;-146.27;100.00;64033.13;5115313;28;20375;-50
2022/06/29 10:41:10;;;;;;;;;;;;;;;-146.27;100.00;64033.13;5115237;28;20003;-50
2022/06/29 10:43:38;;;;;;;;;;;;;;;-146.27;100.00;64033.13;5114940;28;19948;-48
2022/06/29 10:46:03;;;;;;;;;;;;;;;-146.27;100.00;64033.13;5114374;28;19912;-49
2022/06/29 10:48:31;;;;;;;;;;;;;;;-146.27;100.00;64033.13;5114670;28;19912;-50
2022/06/29 10:50:56;;;;;;;;;;;;;;;-146.27;100.00;64033.13;5114693;28;20393;-48
2022/06/29 10:53:22;;;;;;;;;;;;;;;-146.27;100.00;64033.13;5114714;28;19915;-47
2022/06/29 10:55:52;;;;;;;;;;;;;;;-146.27;100.00;64033.13;5114413;28;19911;-48
2022/06/29 10:58:17;;;;;;;;;;;;;;;-146.27;100.00;64033.13;5114444;28;20497;-50
2022/06/29 11:01:00;;;;;;;;;;;;;;;-146.27;100.00;64033.13;5114630;28;20074;-50
2022/06/29 11:03:26;;;;;;;;;;;;;;;-146.27;100.00;64033.13;5114560;28;20397;-48
2022/06/29 11:14:06;;;;;;;;;;;;;;;-146.27;100.00;64033.13;5114043;28;20288;-38
2022/06/29 11:16:36;;;;;;;;;;;;;;;-146.27;100.00;64033.13;5114498;28;19918;-38
2022/06/29 11:19:02;;;;;;;;;;;;;;;-146.27;100.00;64033.13;5113938;28;19919;-37
2022/06/29 11:21:30;;;;;;;;;;;;;;;-146.27;100.00;64033.13;5114080;28;20386;-37
2022/06/29 11:24:02;;;;;;;;;;;;;;;-146.27;100.00;64033.13;5114134;28;19912;-37
2022/06/29 11:26:28;;;;;;;;;;;;;;;-146.27;100.00;64033.13;5114072;27;20022;-37
2022/06/29 11:28:53;;;;;;;;;;;;;;;-146.27;100.00;64033.13;5114003;28;19952;-38
2022/06/29 11:31:19;;;;;;;;;;;;;;;-146.27;100.00;64033.13;5114049;28;19919;-37
2022/06/29 11:33:49;;;;;;;;;;;;;;;-146.27;100.00;64033.13;5114255;28;19920;-38
2022/06/29 11:36:18;;;;;;;;;;;;;;;-146.27;100.00;64033.13;5113863;28;20002;-37
2022/06/29 11:38:47;;;;;;;;;;;;;;;-146.27;100.00;64033.13;5113616;28;20439;-37
2022/06/29 11:41:20;;;;;;;;;;;;;;;-146.27;100.00;64033.13;5113942;27;19912;-38
2022/06/29 11:43:56;;;;;;;;;;;;;;;-146.27;100.00;64033.13;5114196;28;20434;-37
2022/06/29 11:46:22;;;;;;;;;;;;;;;-146.27;100.00;64033.13;5114184;28;19915;-37
2022/06/29 11:51:47;;;;;;;;;;;;;;;-146.27;100.00;64033.13;5113585;28;19919;-37
2022/06/29 11:54:13;;;;;;;;;;;;;;;-146.27;100.00;64033.13;5113252;28;19936;-40
2022/06/29 11:56:38;;;;;;;;;;;;;;;-146.27;100.00;64033.13;5113468;28;19986;-41
2022/06/29 11:59:06;;;;;;;;;;;;;;;-146.27;100.00;64033.13;5113439;27;20396;-38
2022/06/29 12:01:32;;;;;;;;;;;;;;;-146.27;100.00;64033.13;5112942;28;19916;-37
2022/06/29 12:03:58;;;;;;;;;;;;;;;-146.27;100.00;64033.13;5112979;28;19918;-38
2022/06/29 12:06:25;;;;;;;;;;;;;;;-146.27;100.00;64033.13;5112637;28;19912;-38
2022/06/29 12:08:51;;;;;;;;;;;;;;;-146.27;100.00;64033.13;5113051;28;20459;-39
2022/06/29 12:11:16;;;;;;;;;;;;;;;-146.27;100.00;64033.13;5113052;28;19911;-37
2022/06/29 12:13:46;;;;;;;;;;;;;;;-146.27;100.00;64033.13;5112647;28;19946;-37
2022/06/29 12:16:12;;;;;;;;;;;;;;;-146.27;100.00;64033.13;5113112;28;19916;-36
2022/06/29 12:18:37;;;;;;;;;;;;;;;-146.27;100.00;64033.13;5112904;28;20270;-37
2022/06/29 12:21:02;;;;;;;;;;;;;;;-146.27;100.00;64033.13;5112680;28;20010;-37
2022/06/29 12:23:28;;;;;;;;;;;;;;;-146.27;100.00;64033.13;5112465;28;19996;-37
2022/06/29 12:26:03;;;;;;;;;;;;;;;-146.27;100.00;64033.13;5112394;28;20311;-38
2022/06/29 12:28:28;;;;;;;;;;;;;;;-146.27;100.00;64033.13;5112825;28;19912;-38
2022/06/29 12:30:53;;;;;;;;;;;;;;;-146.27;100.00;64033.13;5113082;28;19912;-38
2022/06/29 12:33:19;;;;;;;;;;;;;;;-146.27;100.00;64033.13;5112560;28;20367;-38
2022/06/29 12:35:46;;;;;;;;;;;;;;;-146.27;100.00;64033.13;5112163;28;20368;-37
2022/06/29 12:38:11;;;;;;;;;;;;;;;-146.27;100.00;64033.13;5112649;27;19920;-36